Time;durP1;ratioP1;P1;durP2;ratioP2;P2;SDS_P1;SDS_P2;PMS_P1;PMS_P2;Temp;Humidity;BMP_temperature;BMP_pressure;BME280_temperature;BME280_humidity;BME280_pressure;Samples;Min_cycle;Max_cycle;Signal;HPM_P1;HPM_P2
2022/07/12 00:00:08;;;;;;;;;;;20.30;67.70;;;;;;2004717;28;19912;-71
2022/07/12 00:01:07;;;;;;;;;;;20.30;67.70;;;;;;2004693;28;20059;-70
2022/07/12 00:02:05;;;;;;;;;;;20.30;67.70;;;;;;2004714;28;19958;-70
2022/07/12 00:03:04;;;;;;;;;;;20.30;67.70;;;;;;2005044;28;19916;-73
2022/07/12 00:04:02;;;;;;;;;;;20.30;67.70;;;;;;2004823;28;19944;-70
2022/07/12 00:05:01;;;;;;;;;;;20.30;67.70;;;;;;2004736;28;19956;-72
2022/07/12 00:05:59;;;;;;;;;;;20.30;67.70;;;;;;2004867;28;19906;-73
2022/07/12 00:06:58;;;;;;;;;;;20.30;67.70;;;;;;2004710;28;19955;-72
2022/07/12 00:07:56;;;;;;;;;;;20.30;67.70;;;;;;2004721;28;20229;-71
2022/07/12 00:08:55;;;;;;;;;;;20.30;67.70;;;;;;2004891;28;19912;-71
2022/07/12 00:09:53;;;;;;;;;;;20.30;67.70;;;;;;2004718;28;19909;-71
2022/07/12 00:10:52;;;;;;;;;;;20.30;67.70;;;;;;2004518;28;20019;-71
2022/07/12 00:11:51;;;;;;;;;;;20.30;67.70;;;;;;2004663;28;20364;-71
2022/07/12 00:12:49;;;;;;;;;;;20.30;67.70;;;;;;2004842;28;20361;-70
2022/07/12 00:13:48;;;;;;;;;;;20.20;67.60;;;;;;2005202;28;19992;-72
2022/07/12 00:14:46;;;;;;;;;;;20.20;67.70;;;;;;2004019;28;20299;-70
2022/07/12 00:15:45;;;;;;;;;;;20.30;67.70;;;;;;2004272;28;19913;-70
2022/07/12 00:16:43;;;;;;;;;;;20.20;67.70;;;;;;2004660;28;19905;-73
2022/07/12 00:17:42;;;;;;;;;;;20.20;67.70;;;;;;2004684;28;19913;-71
2022/07/12 00:18:41;;;;;;;;;;;20.20;67.70;;;;;;2005861;28;19911;-70
2022/07/12 00:19:40;;;;;;;;;;;20.30;67.80;;;;;;2006202;28;19999;-70
2022/07/12 00:20:38;;;;;;;;;;;20.30;67.80;;;;;;2005541;28;19915;-72
2022/07/12 00:21:37;;;;;;;;;;;20.20;67.70;;;;;;2005608;28;19953;-71
2022/07/12 00:22:35;;;;;;;;;;;20.20;67.70;;;;;;2006284;28;19942;-71
2022/07/12 00:23:34;;;;;;;;;;;20.20;67.70;;;;;;2006191;28;20387;-74
2022/07/12 00:24:33;;;;;;;;;;;20.20;67.70;;;;;;2006043;28;19937;-70
2022/07/12 00:25:31;;;;;;;;;;;20.20;67.70;;;;;;2006067;28;19910;-71
2022/07/12 00:26:30;;;;;;;;;;;20.20;67.70;;;;;;2006120;28;19905;-70
2022/07/12 00:27:29;;;;;;;;;;;20.20;67.70;;;;;;2006099;28;19913;-70
2022/07/12 00:28:27;;;;;;;;;;;20.20;67.70;;;;;;2006003;28;19910;-71
2022/07/12 00:29:25;;;;;;;;;;;20.20;67.70;;;;;;2006138;28;19906;-72
2022/07/12 00:30:24;;;;;;;;;;;20.20;67.70;;;;;;2005943;28;19952;-70
2022/07/12 00:31:22;;;;;;;;;;;20.20;67.70;;;;;;2005894;28;19905;-70
2022/07/12 00:32:21;;;;;;;;;;;20.20;67.70;;;;;;2006173;28;19905;-73
2022/07/12 00:33:19;;;;;;;;;;;20.20;67.70;;;;;;2006082;28;19905;-70
2022/07/12 00:34:18;;;;;;;;;;;20.20;67.60;;;;;;2006007;28;19905;-70
2022/07/12 00:35:16;;;;;;;;;;;20.20;67.70;;;;;;2006036;28;19906;-72
2022/07/12 00:36:15;;;;;;;;;;;20.30;67.80;;;;;;2005980;28;19995;-70
2022/07/12 00:37:14;;;;;;;;;;;20.20;67.70;;;;;;2006066;28;19917;-71
2022/07/12 00:38:12;;;;;;;;;;;20.20;67.70;;;;;;2013362;28;20352;-70
2022/07/12 00:39:11;;;;;;;;;;;20.20;67.70;;;;;;2013395;28;19905;-71
2022/07/12 00:40:10;;;;;;;;;;;20.20;67.70;;;;;;2005976;28;19909;-73
2022/07/12 00:41:09;;;;;;;;;;;20.20;67.70;;;;;;2005385;28;19905;-71
2022/07/12 00:42:07;;;;;;;;;;;20.20;67.70;;;;;;2005943;28;20345;-72
2022/07/12 00:43:06;;;;;;;;;;;20.20;67.70;;;;;;2006087;28;20079;-70
2022/07/12 00:44:04;;;;;;;;;;;20.20;67.70;;;;;;2006157;28;19909;-71
2022/07/12 00:45:03;;;;;;;;;;;20.20;67.70;;;;;;2006262;28;20308;-70
2022/07/12 00:46:02;;;;;;;;;;;20.20;67.70;;;;;;2006093;28;19905;-71
2022/07/12 00:47:01;;;;;;;;;;;20.20;67.70;;;;;;2006020;28;20277;-71
2022/07/12 00:48:00;;;;;;;;;;;20.20;67.70;;;;;;2005891;28;19909;-71
2022/07/12 00:48:58;;;;;;;;;;;20.20;67.70;;;;;;2005279;28;19906;-72
2022/07/12 00:49:58;;;;;;;;;;;20.20;67.70;;;;;;2005375;28;20341;-71
2022/07/12 00:50:56;;;;;;;;;;;20.20;67.70;;;;;;2005715;28;19909;-70
2022/07/12 00:51:55;;;;;;;;;;;20.20;67.70;;;;;;2005811;28;19956;-73
2022/07/12 00:52:54;;;;;;;;;;;20.20;67.70;;;;;;2005888;28;19905;-70
2022/07/12 00:53:53;;;;;;;;;;;20.20;67.70;;;;;;2005968;28;19912;-72
2022/07/12 00:54:52;;;;;;;;;;;20.20;67.70;;;;;;2005977;28;19912;-73
2022/07/12 00:55:54;;;;;;;;;;;20.20;67.70;;;;;;2005982;28;19912;-72
2022/07/12 00:56:53;;;;;;;;;;;20.20;67.70;;;;;;2005977;28;19909;-72
2022/07/12 00:57:52;;;;;;;;;;;20.20;67.70;;;;;;2005799;28;20235;-70
2022/07/12 00:58:51;;;;;;;;;;;20.20;67.70;;;;;;2005204;28;19906;-73
2022/07/12 00:59:50;;;;;;;;;;;20.20;67.70;;;;;;1997469;28;20413;-70
2022/07/12 01:00:48;;;;;;;;;;;20.20;67.70;;;;;;2004778;28;20008;-73
2022/07/12 01:01:47;;;;;;;;;;;20.20;67.70;;;;;;2005657;28;19905;-72
2022/07/12 01:02:46;;;;;;;;;;;20.20;67.70;;;;;;2005965;28;19906;-71
2022/07/12 01:03:44;;;;;;;;;;;20.20;67.70;;;;;;2005845;28;19975;-72
2022/07/12 01:04:44;;;;;;;;;;;20.20;67.70;;;;;;2005793;28;19906;-70
2022/07/12 01:05:44;;;;;;;;;;;20.20;67.70;;;;;;2005879;28;19905;-70
2022/07/12 01:06:44;;;;;;;;;;;20.20;67.70;;;;;;2005835;28;19944;-70
2022/07/12 01:07:43;;;;;;;;;;;20.20;67.70;;;;;;2005801;28;19906;-70
2022/07/12 01:08:42;;;;;;;;;;;20.20;67.70;;;;;;2005817;28;19905;-70
2022/07/12 01:09:41;;;;;;;;;;;20.20;67.70;;;;;;2005923;28;19941;-69
2022/07/12 01:10:39;;;;;;;;;;;20.20;67.70;;;;;;2005610;28;19917;-70
2022/07/12 01:11:39;;;;;;;;;;;20.20;67.70;;;;;;2005696;28;19905;-71
2022/07/12 01:12:38;;;;;;;;;;;20.20;67.70;;;;;;2005860;28;20143;-71
2022/07/12 01:13:37;;;;;;;;;;;20.20;67.70;;;;;;2005863;28;20064;-71
2022/07/12 01:14:36;;;;;;;;;;;20.20;67.70;;;;;;2005742;28;19906;-70
2022/07/12 01:15:34;;;;;;;;;;;20.20;67.70;;;;;;2005773;28;19909;-70
2022/07/12 01:16:33;;;;;;;;;;;20.20;67.70;;;;;;2005703;28;20288;-72
2022/07/12 01:17:31;;;;;;;;;;;20.20;67.70;;;;;;2005682;28;19996;-70
2022/07/12 01:18:30;;;;;;;;;;;20.20;67.80;;;;;;2005764;28;19905;-71
2022/07/12 01:19:29;;;;;;;;;;;20.20;67.70;;;;;;2005795;28;20321;-70
2022/07/12 01:20:29;;;;;;;;;;;20.20;67.70;;;;;;2009320;28;19905;-70
2022/07/12 01:21:29;;;;;;;;;;;20.20;67.80;;;;;;2011822;28;19964;-70
2022/07/12 01:22:31;;;;;;;;;;;20.20;67.70;;;;;;2012856;28;19905;-69
2022/07/12 01:23:30;;;;;;;;;;;20.20;67.80;;;;;;2012839;28;19960;-71
2022/07/12 01:24:29;;;;;;;;;;;20.20;67.70;;;;;;2008943;28;19964;-72
2022/07/12 01:25:27;;;;;;;;;;;20.20;67.70;;;;;;2008800;28;19988;-70
2022/07/12 01:26:27;;;;;;;;;;;20.20;67.70;;;;;;2007114;28;20360;-70
2022/07/12 01:27:25;;;;;;;;;;;20.20;67.80;;;;;;2006630;28;20357;-70
2022/07/12 01:28:24;;;;;;;;;;;20.20;67.70;;;;;;2006200;28;19931;-70
2022/07/12 01:29:23;;;;;;;;;;;20.20;67.70;;;;;;2006377;28;19905;-71
2022/07/12 01:30:21;;;;;;;;;;;20.20;67.70;;;;;;2006027;28;20357;-72
2022/07/12 01:31:20;;;;;;;;;;;20.20;67.70;;;;;;2005663;28;19909;-71
2022/07/12 01:32:25;;;;;;;;;;;20.20;67.80;;;;;;2005975;28;19913;-72
2022/07/12 01:33:24;;;;;;;;;;;20.20;67.80;;;;;;2005885;28;19912;-71
2022/07/12 01:34:23;;;;;;;;;;;20.20;67.80;;;;;;2005918;28;20063;-71
2022/07/12 01:35:21;;;;;;;;;;;20.20;67.80;;;;;;2006012;28;20016;-70
2022/07/12 01:36:20;;;;;;;;;;;20.20;67.80;;;;;;2006388;28;19906;-71
2022/07/12 01:37:19;;;;;;;;;;;20.20;67.80;;;;;;2006231;28;20069;-70
2022/07/12 01:38:18;;;;;;;;;;;20.10;67.70;;;;;;2005875;28;20327;-69
2022/07/12 01:39:16;;;;;;;;;;;20.20;67.80;;;;;;2005788;28;19905;-73
2022/07/12 01:40:16;;;;;;;;;;;20.20;67.80;;;;;;2005940;28;19928;-70
2022/07/12 01:41:16;;;;;;;;;;;20.10;67.70;;;;;;2005754;28;20230;-71
2022/07/12 01:42:14;;;;;;;;;;;20.10;67.70;;;;;;2005867;28;19917;-71
2022/07/12 01:43:14;;;;;;;;;;;20.10;67.70;;;;;;2005877;28;19912;-70
2022/07/12 01:44:12;;;;;;;;;;;20.10;67.70;;;;;;2005760;28;19912;-73
2022/07/12 01:45:12;;;;;;;;;;;20.10;67.70;;;;;;2005636;28;19959;-71
2022/07/12 01:46:10;;;;;;;;;;;20.10;67.60;;;;;;2005780;28;20052;-71
2022/07/12 01:47:10;;;;;;;;;;;20.10;67.60;;;;;;2005679;28;20104;-71
2022/07/12 01:48:08;;;;;;;;;;;20.10;67.70;;;;;;2005622;28;19906;-70
2022/07/12 01:49:06;;;;;;;;;;;20.10;67.70;;;;;;2005486;28;20340;-72
2022/07/12 01:50:07;;;;;;;;;;;20.10;67.70;;;;;;2005564;28;20273;-71
2022/07/12 01:51:05;;;;;;;;;;;20.10;67.70;;;;;;2005479;28;19917;-70
2022/07/12 01:52:04;;;;;;;;;;;20.10;67.70;;;;;;2005477;28;19913;-72
2022/07/12 01:53:05;;;;;;;;;;;20.10;67.70;;;;;;2005484;28;19912;-70
2022/07/12 01:54:03;;;;;;;;;;;20.10;67.70;;;;;;2005487;28;19905;-70
2022/07/12 01:55:02;;;;;;;;;;;20.10;67.70;;;;;;2005554;28;19924;-72
2022/07/12 01:56:01;;;;;;;;;;;20.10;67.70;;;;;;2005552;28;19952;-71
2022/07/12 01:57:00;;;;;;;;;;;20.20;67.80;;;;;;2005518;28;19909;-71
2022/07/12 01:57:59;;;;;;;;;;;20.10;67.70;;;;;;2005628;28;19992;-70
2022/07/12 01:58:59;;;;;;;;;;;20.10;67.70;;;;;;2005558;28;19964;-72
2022/07/12 01:59:59;;;;;;;;;;;20.10;67.70;;;;;;2005509;28;20281;-70
2022/07/12 02:00:58;;;;;;;;;;;20.10;67.70;;;;;;2005468;28;19905;-70
2022/07/12 02:01:57;;;;;;;;;;;20.10;67.70;;;;;;2005597;28;19905;-70
2022/07/12 02:02:55;;;;;;;;;;;20.10;67.70;;;;;;2005573;28;19913;-71
2022/07/12 02:03:54;;;;;;;;;;;20.10;67.70;;;;;;2005393;28;20000;-71
2022/07/12 02:04:53;;;;;;;;;;;20.10;67.70;;;;;;2005344;28;19906;-70
2022/07/12 02:05:51;;;;;;;;;;;20.10;67.70;;;;;;2005760;28;19912;-70
2022/07/12 02:06:50;;;;;;;;;;;20.10;67.70;;;;;;2006213;28;19905;-71
2022/07/12 02:07:49;;;;;;;;;;;20.10;67.70;;;;;;2006218;28;19906;-70
2022/07/12 02:08:49;;;;;;;;;;;20.10;67.70;;;;;;2005593;28;19955;-70
2022/07/12 02:09:47;;;;;;;;;;;20.10;67.70;;;;;;2005537;28;20007;-69
2022/07/12 02:10:46;;;;;;;;;;;20.10;67.70;;;;;;2005385;28;19929;-72
2022/07/12 02:11:46;;;;;;;;;;;20.10;67.70;;;;;;2005416;28;19956;-71
2022/07/12 02:12:44;;;;;;;;;;;20.10;67.70;;;;;;2005762;28;19916;-70
2022/07/12 02:13:43;;;;;;;;;;;20.10;67.70;;;;;;2005576;28;20044;-71
2022/07/12 02:14:41;;;;;;;;;;;20.10;67.70;;;;;;2005469;28;20271;-70
2022/07/12 02:15:40;;;;;;;;;;;20.10;68.40;;;;;;2005492;28;19906;-72
2022/07/12 02:16:39;;;;;;;;;;;20.10;67.70;;;;;;2005353;28;19906;-70
2022/07/12 02:17:37;;;;;;;;;;;20.10;68.50;;;;;;2005481;28;19905;-71
2022/07/12 02:18:36;;;;;;;;;;;20.10;67.70;;;;;;2005875;28;19916;-71
2022/07/12 02:19:34;;;;;;;;;;;20.10;67.70;;;;;;2005642;28;20411;-71
2022/07/12 02:20:33;;;;;;;;;;;20.10;67.70;;;;;;2005493;28;19905;-70
2022/07/12 02:21:31;;;;;;;;;;;20.10;67.70;;;;;;2005840;28;19912;-70
2022/07/12 02:22:30;;;;;;;;;;;20.10;67.70;;;;;;2005878;28;19909;-70
2022/07/12 02:23:28;;;;;;;;;;;20.10;67.70;;;;;;2006372;28;19988;-71
2022/07/12 02:24:28;;;;;;;;;;;20.10;67.80;;;;;;2006345;28;19905;-71
2022/07/12 02:25:27;;;;;;;;;;;20.10;67.70;;;;;;2006426;28;19905;-70
2022/07/12 02:26:26;;;;;;;;;;;20.10;67.70;;;;;;2006677;28;20019;-71
2022/07/12 02:27:24;;;;;;;;;;;20.10;67.70;;;;;;2006450;28;19909;-71
2022/07/12 02:28:23;;;;;;;;;;;20.10;67.70;;;;;;2005563;28;19906;-71
2022/07/12 02:29:21;;;;;;;;;;;20.10;67.80;;;;;;2005338;28;19996;-70
2022/07/12 02:30:20;;;;;;;;;;;20.10;67.80;;;;;;2005399;28;19905;-71
2022/07/12 02:31:18;;;;;;;;;;;20.10;67.80;;;;;;2005228;28;19916;-71
2022/07/12 02:32:17;;;;;;;;;;;20.10;67.80;;;;;;2005371;28;19996;-71
2022/07/12 02:33:15;;;;;;;;;;;20.10;67.70;;;;;;2005438;28;19906;-71
2022/07/12 02:34:14;;;;;;;;;;;20.10;67.80;;;;;;2005343;28;19909;-71
2022/07/12 02:35:12;;;;;;;;;;;20.10;67.80;;;;;;2005489;28;20107;-70
2022/07/12 02:36:11;;;;;;;;;;;20.10;67.80;;;;;;2005623;28;19906;-71
2022/07/12 02:37:10;;;;;;;;;;;20.10;67.80;;;;;;2005866;28;19912;-71
2022/07/12 02:38:08;;;;;;;;;;;20.10;67.80;;;;;;2005882;28;19912;-72
2022/07/12 02:39:07;;;;;;;;;;;20.10;67.80;;;;;;2005650;28;19906;-70
2022/07/12 02:41:23;;;;;;;;;;;20.10;67.80;;;;;;2005614;28;19905;-69
2022/07/12 02:42:21;;;;;;;;;;;20.10;67.80;;;;;;2005780;28;19905;-70
2022/07/12 02:43:20;;;;;;;;;;;20.10;67.80;;;;;;2006412;28;19906;-70
2022/07/12 02:44:19;;;;;;;;;;;20.10;67.80;;;;;;2006673;28;19948;-70
2022/07/12 02:45:18;;;;;;;;;;;20.10;67.80;;;;;;2006643;28;19905;-71
2022/07/12 02:46:16;;;;;;;;;;;20.10;67.80;;;;;;2006640;28;19951;-71
2022/07/12 02:47:15;;;;;;;;;;;20.10;67.80;;;;;;2006773;28;19917;-70
2022/07/12 02:48:14;;;;;;;;;;;20.10;67.80;;;;;;2006379;28;19905;-69
2022/07/12 02:49:12;;;;;;;;;;;20.10;67.80;;;;;;2006781;28;19925;-71
2022/07/12 02:50:11;;;;;;;;;;;20.00;67.70;;;;;;2007008;28;19909;-72
2022/07/12 02:51:10;;;;;;;;;;;20.10;67.80;;;;;;2007354;28;19909;-71
2022/07/12 02:52:09;;;;;;;;;;;20.10;67.80;;;;;;2007262;28;19905;-69
2022/07/12 02:53:08;;;;;;;;;;;20.10;67.80;;;;;;2007029;28;19906;-71
2022/07/12 02:54:06;;;;;;;;;;;20.10;67.80;;;;;;2007303;28;19996;-70
2022/07/12 02:55:05;;;;;;;;;;;20.10;67.80;;;;;;2006977;28;19928;-70
2022/07/12 02:56:04;;;;;;;;;;;20.10;67.80;;;;;;2006597;28;19916;-71
2022/07/12 02:57:02;;;;;;;;;;;20.10;67.80;;;;;;2006891;28;20000;-69
2022/07/12 02:58:01;;;;;;;;;;;20.10;67.80;;;;;;2006683;28;19905;-71
2022/07/12 02:59:00;;;;;;;;;;;20.10;67.80;;;;;;2006970;28;19905;-70
2022/07/12 02:59:58;;;;;;;;;;;20.10;67.80;;;;;;2006916;28;19929;-69
2022/07/12 03:00:57;;;;;;;;;;;20.00;67.70;;;;;;2007136;28;19924;-70
2022/07/12 03:01:56;;;;;;;;;;;20.10;67.80;;;;;;2006705;28;20246;-71
2022/07/12 03:02:54;;;;;;;;;;;20.10;67.80;;;;;;2006817;28;19910;-70
2022/07/12 03:03:52;;;;;;;;;;;20.00;67.70;;;;;;2007324;28;19905;-70
2022/07/12 03:04:51;;;;;;;;;;;20.10;67.80;;;;;;2006151;28;19905;-70
2022/07/12 03:05:49;;;;;;;;;;;20.00;67.70;;;;;;2006508;28;20395;-70
2022/07/12 03:06:48;;;;;;;;;;;20.10;67.80;;;;;;2007820;28;19971;-71
2022/07/12 03:07:46;;;;;;;;;;;20.10;67.80;;;;;;2008391;28;20261;-70
2022/07/12 03:08:45;;;;;;;;;;;20.00;67.80;;;;;;2007742;28;19906;-70
2022/07/12 03:09:43;;;;;;;;;;;20.00;67.70;;;;;;2008030;28;19913;-71
2022/07/12 03:10:42;;;;;;;;;;;20.10;67.80;;;;;;2008305;28;19918;-71
2022/07/12 03:11:41;;;;;;;;;;;20.00;67.70;;;;;;2008398;28;19928;-71
2022/07/12 03:12:39;;;;;;;;;;;20.00;67.70;;;;;;2008606;28;19912;-71
2022/07/12 03:13:38;;;;;;;;;;;20.00;67.70;;;;;;2007908;28;20377;-72
2022/07/12 03:14:38;;;;;;;;;;;20.00;67.80;;;;;;2008033;28;19928;-70
2022/07/12 03:15:37;;;;;;;;;;;20.00;67.80;;;;;;2006761;28;19906;-70
2022/07/12 03:16:36;;;;;;;;;;;20.00;67.80;;;;;;2007101;28;19947;-71
2022/07/12 03:17:34;;;;;;;;;;;20.00;67.80;;;;;;2007143;28;19910;-69
2022/07/12 03:18:33;;;;;;;;;;;20.00;67.80;;;;;;2005783;28;19905;-72
2022/07/12 03:19:32;;;;;;;;;;;20.00;67.80;;;;;;2005067;28;19963;-70
2022/07/12 03:20:31;;;;;;;;;;;20.00;67.80;;;;;;2005169;28;19906;-72
2022/07/12 03:21:30;;;;;;;;;;;20.00;67.80;;;;;;2006170;28;19912;-71
2022/07/12 03:22:28;;;;;;;;;;;20.00;67.80;;;;;;2005554;28;19928;-70
2022/07/12 03:23:27;;;;;;;;;;;20.00;67.80;;;;;;2005341;28;19921;-70
2022/07/12 03:24:25;;;;;;;;;;;20.00;67.80;;;;;;2005129;28;19909;-70
2022/07/12 03:25:24;;;;;;;;;;;20.00;67.80;;;;;;2005108;28;20024;-70
2022/07/12 03:26:22;;;;;;;;;;;20.00;67.80;;;;;;2005242;28;19906;-71
2022/07/12 03:27:21;;;;;;;;;;;20.00;67.80;;;;;;2005863;28;19909;-69
2022/07/12 03:28:20;;;;;;;;;;;20.00;67.80;;;;;;2005581;28;19948;-72
2022/07/12 03:29:19;;;;;;;;;;;20.00;67.80;;;;;;2005637;28;19951;-70
2022/07/12 03:30:17;;;;;;;;;;;20.00;67.80;;;;;;2005580;28;19996;-71
2022/07/12 03:31:16;;;;;;;;;;;20.00;67.80;;;;;;2005598;28;19909;-71
2022/07/12 03:32:14;;;;;;;;;;;20.00;67.80;;;;;;2005968;28;19932;-69
2022/07/12 03:33:13;;;;;;;;;;;20.00;67.80;;;;;;2005565;28;20364;-71
2022/07/12 03:34:11;;;;;;;;;;;20.00;67.80;;;;;;2005427;28;19974;-71
2022/07/12 03:35:10;;;;;;;;;;;20.00;67.80;;;;;;2005510;28;19905;-72
2022/07/12 03:36:08;;;;;;;;;;;20.00;67.80;;;;;;2005308;28;19913;-70
2022/07/12 03:37:07;;;;;;;;;;;20.00;67.80;;;;;;2005564;28;19952;-71
2022/07/12 03:38:05;;;;;;;;;;;20.00;67.80;;;;;;2005423;28;20413;-70
2022/07/12 03:39:04;;;;;;;;;;;20.10;67.90;;;;;;2005185;28;20348;-70
2022/07/12 03:40:02;;;;;;;;;;;20.00;67.80;;;;;;2004935;28;19956;-71
2022/07/12 03:41:01;;;;;;;;;;;20.00;67.80;;;;;;2004976;28;19917;-70
2022/07/12 03:41:59;;;;;;;;;;;20.00;67.80;;;;;;2004791;28;19952;-70
2022/07/12 03:42:58;;;;;;;;;;;20.00;67.80;;;;;;2004803;28;19909;-70
2022/07/12 03:43:56;;;;;;;;;;;20.00;67.90;;;;;;2005104;28;19913;-71
2022/07/12 03:44:55;;;;;;;;;;;20.00;67.90;;;;;;2005034;28;19912;-72
2022/07/12 03:45:54;;;;;;;;;;;20.00;67.90;;;;;;2004856;28;19906;-72
2022/07/12 03:46:52;;;;;;;;;;;20.00;67.80;;;;;;2005023;28;19905;-73
2022/07/12 03:47:51;;;;;;;;;;;20.00;67.90;;;;;;2004788;28;19915;-71
2022/07/12 03:48:49;;;;;;;;;;;20.00;67.90;;;;;;2004862;28;19912;-70
2022/07/12 03:49:48;;;;;;;;;;;20.00;67.80;;;;;;2004984;28;19906;-71
2022/07/12 03:50:46;;;;;;;;;;;20.00;67.80;;;;;;2004751;28;20072;-71
2022/07/12 03:51:45;;;;;;;;;;;20.00;67.90;;;;;;2004731;28;19944;-71
2022/07/12 03:52:44;;;;;;;;;;;20.00;67.80;;;;;;2004816;28;20246;-71
2022/07/12 03:53:43;;;;;;;;;;;20.00;67.90;;;;;;2006178;28;19906;-70
2022/07/12 03:54:41;;;;;;;;;;;20.00;67.90;;;;;;2006528;28;19905;-71
2022/07/12 03:55:41;;;;;;;;;;;20.00;67.90;;;;;;2006321;28;19906;-70
2022/07/12 03:57:57;;;;;;;;;;;20.00;67.90;;;;;;2006644;28;19905;-72
2022/07/12 03:58:55;;;;;;;;;;;20.00;67.90;;;;;;2006640;28;19948;-71
2022/07/12 03:59:54;;;;;;;;;;;20.00;67.90;;;;;;2006518;28;19941;-73
2022/07/12 04:00:53;;;;;;;;;;;20.00;67.90;;;;;;2006564;28;19928;-71
2022/07/12 04:01:51;;;;;;;;;;;20.00;67.90;;;;;;2006538;28;20375;-72
2022/07/12 04:02:49;;;;;;;;;;;20.00;67.90;;;;;;2006610;28;19905;-70
2022/07/12 04:03:48;;;;;;;;;;;20.00;67.90;;;;;;2006238;28;19906;-71
2022/07/12 04:04:46;;;;;;;;;;;20.00;68.00;;;;;;2006118;28;19996;-71
2022/07/12 04:05:45;;;;;;;;;;;20.00;67.90;;;;;;2006295;28;20015;-70
2022/07/12 04:06:43;;;;;;;;;;;20.00;67.90;;;;;;2006229;28;19913;-71
2022/07/12 04:07:42;;;;;;;;;;;20.00;67.90;;;;;;2006363;28;19912;-70
2022/07/12 04:08:40;;;;;;;;;;;20.00;67.90;;;;;;2009311;28;20276;-71
2022/07/12 04:09:39;;;;;;;;;;;20.00;68.00;;;;;;2008259;28;19905;-71
2022/07/12 04:10:37;;;;;;;;;;;20.00;67.90;;;;;;2016149;28;19921;-72
2022/07/12 04:11:36;;;;;;;;;;;20.00;67.90;;;;;;2015705;28;20355;-72
2022/07/12 04:12:35;;;;;;;;;;;20.00;68.00;;;;;;2008890;28;19909;-70
2022/07/12 04:13:33;;;;;;;;;;;20.00;68.00;;;;;;2007812;28;19905;-71
2022/07/12 04:14:33;;;;;;;;;;;20.00;68.00;;;;;;2006833;28;19913;-70
2022/07/12 04:15:31;;;;;;;;;;;20.00;68.00;;;;;;2006626;28;19909;-71
2022/07/12 04:16:30;;;;;;;;;;;20.00;67.90;;;;;;2008331;28;19905;-72
2022/07/12 04:17:28;;;;;;;;;;;20.00;67.90;;;;;;2006375;28;20379;-70
2022/07/12 04:18:26;;;;;;;;;;;20.00;68.00;;;;;;2006198;28;20004;-70
2022/07/12 04:19:27;;;;;;;;;;;20.00;68.00;;;;;;2006195;28;20284;-71
2022/07/12 04:20:26;;;;;;;;;;;20.00;68.00;;;;;;2006092;28;20319;-71
2022/07/12 04:21:24;;;;;;;;;;;20.00;68.00;;;;;;2006227;28;20058;-72
2022/07/12 04:22:23;;;;;;;;;;;20.00;67.90;;;;;;2007303;28;19935;-70
2022/07/12 04:23:22;;;;;;;;;;;20.00;68.00;;;;;;2006326;28;19951;-71
2022/07/12 04:24:21;;;;;;;;;;;20.00;68.00;;;;;;2006403;28;20345;-70
2022/07/12 04:25:19;;;;;;;;;;;20.00;68.00;;;;;;2006297;28;20404;-70
2022/07/12 04:26:18;;;;;;;;;;;20.00;68.00;;;;;;2006137;28;20294;-70
2022/07/12 04:27:16;;;;;;;;;;;20.00;68.00;;;;;;2006158;28;19933;-71
2022/07/12 04:28:15;;;;;;;;;;;20.00;67.90;;;;;;2005541;28;19909;-72
2022/07/12 04:29:13;;;;;;;;;;;20.00;68.00;;;;;;2005500;28;20341;-71
2022/07/12 04:30:12;;;;;;;;;;;20.00;68.00;;;;;;2006258;28;19906;-71
2022/07/12 04:31:10;;;;;;;;;;;20.00;68.60;;;;;;2005997;28;20357;-73
2022/07/12 04:32:09;;;;;;;;;;;20.00;68.00;;;;;;2006055;28;19973;-70
2022/07/12 04:33:07;;;;;;;;;;;20.00;68.00;;;;;;2006213;28;20333;-73
2022/07/12 04:34:06;;;;;;;;;;;20.00;68.00;;;;;;2006054;28;19905;-70
2022/07/12 04:35:05;;;;;;;;;;;20.00;68.00;;;;;;2006054;28;19916;-69
2022/07/12 04:36:03;;;;;;;;;;;20.00;68.00;;;;;;2005896;28;19928;-72
2022/07/12 04:37:02;;;;;;;;;;;20.00;68.00;;;;;;2006090;28;20293;-71
2022/07/12 04:38:00;;;;;;;;;;;20.00;68.00;;;;;;2006060;28;19906;-70
2022/07/12 04:38:59;;;;;;;;;;;20.00;68.00;;;;;;2006108;28;19963;-70
2022/07/12 04:39:57;;;;;;;;;;;20.00;67.90;;;;;;2006279;28;20331;-72
2022/07/12 04:40:56;;;;;;;;;;;20.00;67.90;;;;;;2005911;28;20380;-72
2022/07/12 04:41:54;;;;;;;;;;;20.00;67.90;;;;;;2006003;28;20011;-71
2022/07/12 04:42:53;;;;;;;;;;;20.00;67.90;;;;;;2005999;28;19905;-70
2022/07/12 04:43:51;;;;;;;;;;;20.00;68.00;;;;;;2005920;28;19905;-71
2022/07/12 04:44:50;;;;;;;;;;;20.00;67.90;;;;;;2006128;28;19912;-70
2022/07/12 04:45:48;;;;;;;;;;;20.00;68.00;;;;;;2005280;28;19956;-72
2022/07/12 04:46:47;;;;;;;;;;;20.00;68.00;;;;;;2005248;28;19909;-70
2022/07/12 04:47:45;;;;;;;;;;;20.00;67.90;;;;;;2005863;28;19906;-71
2022/07/12 04:48:44;;;;;;;;;;;20.00;67.90;;;;;;2008442;28;19911;-73
2022/07/12 04:49:42;;;;;;;;;;;20.00;68.00;;;;;;2006401;28;19906;-70
2022/07/12 04:50:41;;;;;;;;;;;20.00;67.90;;;;;;2005837;28;20004;-71
2022/07/12 04:51:39;;;;;;;;;;;20.00;67.90;;;;;;2005939;28;19906;-72
2022/07/12 04:52:38;;;;;;;;;;;20.00;67.90;;;;;;2005863;28;19982;-72
2022/07/12 04:53:36;;;;;;;;;;;20.00;67.90;;;;;;2005756;28;19906;-71
2022/07/12 04:54:35;;;;;;;;;;;20.10;68.00;;;;;;2013163;28;19959;-71
2022/07/12 04:55:33;;;;;;;;;;;20.00;67.90;;;;;;2005356;28;20351;-71
2022/07/12 04:56:32;;;;;;;;;;;20.00;67.90;;;;;;2005254;28;20375;-71
2022/07/12 04:57:30;;;;;;;;;;;20.00;67.90;;;;;;2005823;28;20375;-69
2022/07/12 04:58:29;;;;;;;;;;;20.00;68.00;;;;;;2005855;28;20381;-72
2022/07/12 04:59:27;;;;;;;;;;;20.00;67.90;;;;;;2005817;28;19953;-71
2022/07/12 05:00:26;;;;;;;;;;;20.10;68.00;;;;;;2005782;28;20272;-72
2022/07/12 05:01:25;;;;;;;;;;;20.00;67.90;;;;;;2005810;28;19963;-72
2022/07/12 05:02:23;;;;;;;;;;;20.00;67.90;;;;;;2006065;28;19950;-72
2022/07/12 05:03:26;;;;;;;;;;;20.00;67.90;;;;;;2005847;28;19909;-70
2022/07/12 05:04:24;;;;;;;;;;;20.00;68.00;;;;;;2004750;28;19929;-71
2022/07/12 05:05:23;;;;;;;;;;;20.00;67.90;;;;;;2005333;28;20361;-70
2022/07/12 05:06:22;;;;;;;;;;;20.10;68.00;;;;;;2005768;28;19905;-70
2022/07/12 05:07:21;;;;;;;;;;;20.00;67.90;;;;;;2005704;28;19905;-70
2022/07/12 05:08:19;;;;;;;;;;;20.10;68.00;;;;;;2005752;28;19913;-72
2022/07/12 05:09:18;;;;;;;;;;;20.10;68.00;;;;;;2005741;28;19906;-72
2022/07/12 05:10:16;;;;;;;;;;;20.10;68.00;;;;;;2005607;28;20004;-70
2022/07/12 05:11:15;;;;;;;;;;;20.10;68.00;;;;;;2004966;28;20012;-71
2022/07/12 05:12:13;;;;;;;;;;;20.10;68.00;;;;;;2005116;28;19956;-71
2022/07/12 05:13:12;;;;;;;;;;;20.00;67.90;;;;;;2005682;28;19905;-72
2022/07/12 05:14:10;;;;;;;;;;;20.00;67.90;;;;;;2005783;28;19909;-72
2022/07/12 05:15:09;;;;;;;;;;;20.10;68.00;;;;;;2005681;28;20246;-72
2022/07/12 05:16:08;;;;;;;;;;;20.10;68.00;;;;;;2005702;28;20250;-71
2022/07/12 05:17:07;;;;;;;;;;;20.10;68.00;;;;;;2005041;28;19906;-70
2022/07/12 05:18:06;;;;;;;;;;;20.10;68.00;;;;;;2005252;28;19912;-73
2022/07/12 05:19:04;;;;;;;;;;;20.10;67.90;;;;;;2005589;28;19916;-73
2022/07/12 05:20:03;;;;;;;;;;;20.10;68.00;;;;;;2005006;28;19905;-72
2022/07/12 05:21:02;;;;;;;;;;;20.10;68.00;;;;;;2005146;28;19905;-72
2022/07/12 05:22:02;;;;;;;;;;;20.10;67.90;;;;;;2005661;28;19905;-71
2022/07/12 05:23:00;;;;;;;;;;;20.10;67.90;;;;;;2005755;28;19905;-71
2022/07/12 05:23:59;;;;;;;;;;;20.10;67.90;;;;;;2005666;28;20280;-72
2022/07/12 05:24:57;;;;;;;;;;;20.10;67.90;;;;;;2005706;28;20320;-71
2022/07/12 05:25:55;;;;;;;;;;;20.10;67.90;;;;;;2005593;28;20353;-70
2022/07/12 05:26:54;;;;;;;;;;;20.10;67.90;;;;;;2005720;28;19913;-72
2022/07/12 05:27:52;;;;;;;;;;;20.10;67.90;;;;;;2005535;28;20004;-72
2022/07/12 05:28:52;;;;;;;;;;;20.10;67.90;;;;;;2005592;28;19906;-73
2022/07/12 05:29:50;;;;;;;;;;;20.10;67.90;;;;;;2005754;28;19905;-72
2022/07/12 05:30:49;;;;;;;;;;;20.10;67.80;;;;;;2005567;28;20384;-71
2022/07/12 05:31:47;;;;;;;;;;;20.10;67.80;;;;;;2005524;28;19905;-72
2022/07/12 05:32:46;;;;;;;;;;;20.10;67.80;;;;;;2005604;28;20380;-72
2022/07/12 05:33:44;;;;;;;;;;;20.10;67.90;;;;;;2005759;28;20229;-71
2022/07/12 05:34:43;;;;;;;;;;;20.10;67.90;;;;;;2005595;28;19910;-71
2022/07/12 05:35:41;;;;;;;;;;;20.10;67.80;;;;;;2005617;28;19913;-71
2022/07/12 05:36:40;;;;;;;;;;;20.10;67.80;;;;;;2005863;28;19905;-70
2022/07/12 05:37:38;;;;;;;;;;;20.10;67.80;;;;;;2005650;28;20275;-71
2022/07/12 05:38:37;;;;;;;;;;;20.10;67.80;;;;;;2005618;28;19906;-72
2022/07/12 05:39:35;;;;;;;;;;;20.10;67.90;;;;;;2005503;28;19905;-72
2022/07/12 05:40:34;;;;;;;;;;;20.10;67.90;;;;;;2005479;28;19987;-71
2022/07/12 05:41:34;;;;;;;;;;;20.10;67.90;;;;;;2012940;28;19905;-71
2022/07/12 05:42:32;;;;;;;;;;;20.10;67.90;;;;;;2012870;28;19999;-73
2022/07/12 05:43:31;;;;;;;;;;;20.10;67.80;;;;;;2005739;28;19913;-71